Terminal Aerodrome Forecast
Issued by NWS Raleigh/Durham, NC

Home | Current Version | Previous Version | Text Only | Print | Product List | Glossary On
Versions: 1 2 3 4 5 6 7 8 9 10 11 12 13 14 15 16 17 18 19 20 21 22 23 24 25 26 27 28 29 30 31 32
000
FTUS42 KRAH 041729
TAFGSO
TAF
KGSO 041729Z 0418/0518 05007KT P6SM VCTS BKN050CB
      TEMPO 0420/0424 2SM TSRA BKN025CB
     FM050200 05005KT P6SM VCSH OVC050
     FM051000 04007KT 4SM BR OVC007
     FM051500 05009KT P6SM OVC015=

USA.gov is the U.S. government's official web portal to all federal, state and local government web resources and services.